sensor_id;sensor_type;location;lat;lon;timestamp;temperature;humidity
1950;DHT22;975;48.760;9.152;2022-07-18T00:04:30;19.20;52.70
1950;DHT22;975;48.760;9.152;2022-07-18T00:06:58;18.60;54.10
1950;DHT22;975;48.760;9.152;2022-07-18T00:09:25;18.50;54.00
1950;DHT22;975;48.760;9.152;2022-07-18T00:11:53;18.50;54.20
1950;DHT22;975;48.760;9.152;2022-07-18T00:14:21;18.50;54.30
1950;DHT22;975;48.760;9.152;2022-07-18T00:16:49;18.40;54.60
1950;DHT22;975;48.760;9.152;2022-07-18T00:19:17;18.40;54.40
1950;DHT22;975;48.760;9.152;2022-07-18T00:21:46;18.40;54.50
1950;DHT22;975;48.760;9.152;2022-07-18T00:29:09;18.30;54.50
1950;DHT22;975;48.760;9.152;2022-07-18T00:31:38;18.10;55.50
1950;DHT22;975;48.760;9.152;2022-07-18T00:34:05;18.00;55.40
1950;DHT22;975;48.760;9.152;2022-07-18T00:36:33;18.00;55.30
1950;DHT22;975;48.760;9.152;2022-07-18T02:08:14;17.90;54.80
1950;DHT22;975;48.760;9.152;2022-07-18T02:10:41;17.10;57.70
1950;DHT22;975;48.760;9.152;2022-07-18T02:13:10;17.10;58.50
1950;DHT22;975;48.760;9.152;2022-07-18T02:15:38;17.00;58.60
1950;DHT22;975;48.760;9.152;2022-07-18T02:18:05;17.00;58.60
1950;DHT22;975;48.760;9.152;2022-07-18T02:20:33;16.90;58.90
1950;DHT22;975;48.760;9.152;2022-07-18T02:23:00;16.90;59.00
1950;DHT22;975;48.760;9.152;2022-07-18T02:25:28;16.90;58.60
1950;DHT22;975;48.760;9.152;2022-07-18T02:27:55;16.80;58.90
1950;DHT22;975;48.760;9.152;2022-07-18T02:30:24;16.80;58.90
1950;DHT22;975;48.760;9.152;2022-07-18T02:45:11;16.70;59.00
1950;DHT22;975;48.760;9.152;2022-07-18T02:47:40;16.30;60.20
1950;DHT22;975;48.760;9.152;2022-07-18T02:50:11;16.20;60.20
1950;DHT22;975;48.760;9.152;2022-07-18T02:52:39;16.20;60.80
1950;DHT22;975;48.760;9.152;2022-07-18T02:55:07;16.20;60.80
1950;DHT22;975;48.760;9.152;2022-07-18T02:57:35;16.20;61.50
1950;DHT22;975;48.760;9.152;2022-07-18T03:00:04;16.10;60.20
1950;DHT22;975;48.760;9.152;2022-07-18T03:02:32;16.10;60.40
1950;DHT22;975;48.760;9.152;2022-07-18T05:52:40;16.10;60.50
1950;DHT22;975;48.760;9.152;2022-07-18T05:55:08;19.20;62.20
1950;DHT22;975;48.760;9.152;2022-07-18T05:57:37;19.30;61.60
1950;DHT22;975;48.760;9.152;2022-07-18T06:00:06;19.50;61.20
1950;DHT22;975;48.760;9.152;2022-07-18T06:07:30;19.70;60.20
1950;DHT22;975;48.760;9.152;2022-07-18T06:09:58;20.30;58.10
1950;DHT22;975;48.760;9.152;2022-07-18T13:49:49;35.50;20.40
1950;DHT22;975;48.760;9.152;2022-07-18T13:52:17;35.90;19.90
1950;DHT22;975;48.760;9.152;2022-07-18T13:57:30;35.50;20.10
1950;DHT22;975;48.760;9.152;2022-07-18T14:00:11;35.10;21.70
1950;DHT22;975;48.760;9.152;2022-07-18T14:05:12;35.20;20.90
1950;DHT22;975;48.760;9.152;2022-07-18T14:07:40;35.80;20.90
1950;DHT22;975;48.760;9.152;2022-07-18T14:10:08;36.10;20.20
1950;DHT22;975;48.760;9.152;2022-07-18T14:12:36;36.20;20.20
1950;DHT22;975;48.760;9.152;2022-07-18T14:15:04;36.20;19.40
1950;DHT22;975;48.760;9.152;2022-07-18T14:17:32;36.10;19.90
1950;DHT22;975;48.760;9.152;2022-07-18T14:20:04;36.10;19.50
1950;DHT22;975;48.760;9.152;2022-07-18T14:22:33;36.00;19.60
1950;DHT22;975;48.760;9.152;2022-07-18T14:25:08;35.90;20.50
1950;DHT22;975;48.760;9.152;2022-07-18T14:27:36;35.80;19.80
1950;DHT22;975;48.760;9.152;2022-07-18T14:30:05;35.80;19.90
1950;DHT22;975;48.760;9.152;2022-07-18T14:32:33;36.00;19.30
1950;DHT22;975;48.760;9.152;2022-07-18T14:35:03;36.20;19.20
1950;DHT22;975;48.760;9.152;2022-07-18T14:37:30;36.10;19.60
1950;DHT22;975;48.760;9.152;2022-07-18T14:39:58;36.20;19.20
1950;DHT22;975;48.760;9.152;2022-07-18T14:42:26;36.20;19.20
1950;DHT22;975;48.760;9.152;2022-07-18T14:44:53;36.00;19.70
1950;DHT22;975;48.760;9.152;2022-07-18T14:47:21;36.00;19.90
1950;DHT22;975;48.760;9.152;2022-07-18T14:49:48;36.00;19.80
1950;DHT22;975;48.760;9.152;2022-07-18T14:52:17;36.20;19.80
1950;DHT22;975;48.760;9.152;2022-07-18T14:54:45;36.00;19.70
1950;DHT22;975;48.760;9.152;2022-07-18T14:57:12;36.00;20.20
1950;DHT22;975;48.760;9.152;2022-07-18T14:59:41;36.20;19.80
1950;DHT22;975;48.760;9.152;2022-07-18T15:02:09;36.30;19.60
1950;DHT22;975;48.760;9.152;2022-07-18T15:04:36;36.50;19.70
1950;DHT22;975;48.760;9.152;2022-07-18T15:07:04;36.70;19.90
1950;DHT22;975;48.760;9.152;2022-07-18T15:09:32;37.00;20.00
1950;DHT22;975;48.760;9.152;2022-07-18T15:12:00;37.40;20.40
1950;DHT22;975;48.760;9.152;2022-07-18T15:14:27;37.60;19.20
1950;DHT22;975;48.760;9.152;2022-07-18T15:16:55;37.60;19.10
1950;DHT22;975;48.760;9.152;2022-07-18T15:19:22;37.90;19.00
1950;DHT22;975;48.760;9.152;2022-07-18T15:21:49;38.40;18.60
1950;DHT22;975;48.760;9.152;2022-07-18T15:24:17;38.60;18.60
1950;DHT22;975;48.760;9.152;2022-07-18T15:26:46;38.90;19.00
1950;DHT22;975;48.760;9.152;2022-07-18T15:29:13;39.50;18.40
1950;DHT22;975;48.760;9.152;2022-07-18T15:31:41;40.00;18.20
1950;DHT22;975;48.760;9.152;2022-07-18T15:34:09;40.60;18.00
1950;DHT22;975;48.760;9.152;2022-07-18T15:36:37;41.10;17.70
1950;DHT22;975;48.760;9.152;2022-07-18T15:39:04;41.50;17.00
1950;DHT22;975;48.760;9.152;2022-07-18T15:41:32;41.80;16.90
1950;DHT22;975;48.760;9.152;2022-07-18T15:44:01;41.70;16.50
1950;DHT22;975;48.760;9.152;2022-07-18T15:46:28;41.60;16.60
1950;DHT22;975;48.760;9.152;2022-07-18T15:48:56;41.80;16.40
1950;DHT22;975;48.760;9.152;2022-07-18T15:51:24;42.10;16.40
1950;DHT22;975;48.760;9.152;2022-07-18T15:53:51;42.30;16.40
1950;DHT22;975;48.760;9.152;2022-07-18T15:56:19;42.00;16.20
1950;DHT22;975;48.760;9.152;2022-07-18T15:58:47;41.80;16.50
1950;DHT22;975;48.760;9.152;2022-07-18T16:01:16;41.60;16.70
1950;DHT22;975;48.760;9.152;2022-07-18T16:03:43;41.80;16.80
1950;DHT22;975;48.760;9.152;2022-07-18T16:06:11;41.90;16.10
1950;DHT22;975;48.760;9.152;2022-07-18T16:08:38;41.90;16.30
1950;DHT22;975;48.760;9.152;2022-07-18T16:11:05;42.10;16.30
1950;DHT22;975;48.760;9.152;2022-07-18T16:13:33;42.50;15.80
1950;DHT22;975;48.760;9.152;2022-07-18T16:16:00;42.40;15.90
1950;DHT22;975;48.760;9.152;2022-07-18T16:18:29;41.80;15.90
1950;DHT22;975;48.760;9.152;2022-07-18T16:20:56;41.70;16.10
1950;DHT22;975;48.760;9.152;2022-07-18T16:23:24;41.70;16.30
1950;DHT22;975;48.760;9.152;2022-07-18T16:25:52;41.70;16.00
1950;DHT22;975;48.760;9.152;2022-07-18T16:28:19;41.40;16.40
1950;DHT22;975;48.760;9.152;2022-07-18T16:30:48;41.30;16.30
1950;DHT22;975;48.760;9.152;2022-07-18T16:33:15;41.10;16.40
1950;DHT22;975;48.760;9.152;2022-07-18T16:35:44;41.20;16.10
1950;DHT22;975;48.760;9.152;2022-07-18T16:38:12;40.90;16.20
1950;DHT22;975;48.760;9.152;2022-07-18T16:40:39;41.20;16.30
1950;DHT22;975;48.760;9.152;2022-07-18T16:43:10;41.50;16.00
1950;DHT22;975;48.760;9.152;2022-07-18T16:45:39;41.60;15.50
1950;DHT22;975;48.760;9.152;2022-07-18T16:48:12;41.50;15.70
1950;DHT22;975;48.760;9.152;2022-07-18T16:50:41;41.60;15.80
1950;DHT22;975;48.760;9.152;2022-07-18T16:53:11;41.80;16.20
1950;DHT22;975;48.760;9.152;2022-07-18T16:55:40;41.90;16.50
1950;DHT22;975;48.760;9.152;2022-07-18T16:58:07;42.20;16.00
1950;DHT22;975;48.760;9.152;2022-07-18T17:00:35;42.40;15.20
1950;DHT22;975;48.760;9.152;2022-07-18T17:03:03;42.50;15.30
1950;DHT22;975;48.760;9.152;2022-07-18T17:05:31;42.40;16.20
1950;DHT22;975;48.760;9.152;2022-07-18T17:07:59;42.30;15.80
1950;DHT22;975;48.760;9.152;2022-07-18T17:10:28;42.10;16.00
1950;DHT22;975;48.760;9.152;2022-07-18T17:12:56;41.60;15.90
1950;DHT22;975;48.760;9.152;2022-07-18T17:15:24;41.10;16.10
1950;DHT22;975;48.760;9.152;2022-07-18T17:17:52;40.20;17.00
1950;DHT22;975;48.760;9.152;2022-07-18T17:20:21;39.40;17.20
1950;DHT22;975;48.760;9.152;2022-07-18T17:22:49;38.70;18.10
1950;DHT22;975;48.760;9.152;2022-07-18T17:25:17;38.20;18.80
1950;DHT22;975;48.760;9.152;2022-07-18T17:27:46;37.70;18.80
1950;DHT22;975;48.760;9.152;2022-07-18T17:30:14;37.20;18.70
1950;DHT22;975;48.760;9.152;2022-07-18T17:32:42;36.60;19.50
1950;DHT22;975;48.760;9.152;2022-07-18T17:35:11;36.20;20.70
1950;DHT22;975;48.760;9.152;2022-07-18T17:37:41;35.90;21.30
1950;DHT22;975;48.760;9.152;2022-07-18T17:40:10;35.50;21.50
1950;DHT22;975;48.760;9.152;2022-07-18T17:42:38;35.10;20.90
1950;DHT22;975;48.760;9.152;2022-07-18T17:45:08;34.70;21.30
1950;DHT22;975;48.760;9.152;2022-07-18T17:47:36;34.40;22.10
1950;DHT22;975;48.760;9.152;2022-07-18T17:50:06;34.10;22.70
1950;DHT22;975;48.760;9.152;2022-07-18T17:52:34;33.80;22.70
1950;DHT22;975;48.760;9.152;2022-07-18T17:55:03;33.60;22.80
1950;DHT22;975;48.760;9.152;2022-07-18T17:57:31;33.40;23.80
1950;DHT22;975;48.760;9.152;2022-07-18T18:00:01;33.20;24.40
1950;DHT22;975;48.760;9.152;2022-07-18T18:02:29;32.90;24.50
1950;DHT22;975;48.760;9.152;2022-07-18T18:05:00;32.70;24.80
1950;DHT22;975;48.760;9.152;2022-07-18T18:07:28;32.50;25.20
1950;DHT22;975;48.760;9.152;2022-07-18T18:09:55;32.30;25.70
1950;DHT22;975;48.760;9.152;2022-07-18T18:12:23;32.20;26.20
1950;DHT22;975;48.760;9.152;2022-07-18T18:14:50;32.00;26.50
1950;DHT22;975;48.760;9.152;2022-07-18T18:17:18;31.90;26.90
1950;DHT22;975;48.760;9.152;2022-07-18T18:19:47;31.70;27.10
1950;DHT22;975;48.760;9.152;2022-07-18T18:22:15;31.50;27.50
1950;DHT22;975;48.760;9.152;2022-07-18T18:24:42;31.40;27.90
1950;DHT22;975;48.760;9.152;2022-07-18T18:27:10;31.20;27.90
1950;DHT22;975;48.760;9.152;2022-07-18T18:29:37;31.10;28.50
1950;DHT22;975;48.760;9.152;2022-07-18T18:32:04;31.00;28.70
1950;DHT22;975;48.760;9.152;2022-07-18T18:34:32;30.80;28.60
1950;DHT22;975;48.760;9.152;2022-07-18T18:37:01;30.60;29.10
1950;DHT22;975;48.760;9.152;2022-07-18T18:39:30;30.50;29.60
1950;DHT22;975;48.760;9.152;2022-07-18T18:42:00;30.30;30.20
1950;DHT22;975;48.760;9.152;2022-07-18T18:44:27;30.20;30.40
1950;DHT22;975;48.760;9.152;2022-07-18T18:46:55;30.00;30.70
1950;DHT22;975;48.760;9.152;2022-07-18T18:49:22;29.90;31.20
1950;DHT22;975;48.760;9.152;2022-07-18T18:51:51;29.80;31.40
1950;DHT22;975;48.760;9.152;2022-07-18T18:54:20;29.60;32.50
1950;DHT22;975;48.760;9.152;2022-07-18T18:56:49;29.50;32.30
1950;DHT22;975;48.760;9.152;2022-07-18T18:59:18;29.30;32.70
1950;DHT22;975;48.760;9.152;2022-07-18T19:01:45;29.20;33.00
1950;DHT22;975;48.760;9.152;2022-07-18T19:04:14;29.10;33.20
1950;DHT22;975;48.760;9.152;2022-07-18T19:06:42;29.00;33.20
1950;DHT22;975;48.760;9.152;2022-07-18T19:09:10;28.80;33.90
1950;DHT22;975;48.760;9.152;2022-07-18T19:11:39;28.60;34.20
1950;DHT22;975;48.760;9.152;2022-07-18T19:16:35;28.50;34.40
1950;DHT22;975;48.760;9.152;2022-07-18T19:19:03;28.20;35.40
1950;DHT22;975;48.760;9.152;2022-07-18T19:26:28;28.10;35.10
1950;DHT22;975;48.760;9.152;2022-07-18T19:28:57;27.70;36.00
1950;DHT22;975;48.760;9.152;2022-07-18T19:31:26;27.50;36.10
1950;DHT22;975;48.760;9.152;2022-07-18T19:33:53;27.40;36.80
1950;DHT22;975;48.760;9.152;2022-07-18T19:36:21;27.30;37.30
1950;DHT22;975;48.760;9.152;2022-07-18T19:38:49;27.20;37.30
1950;DHT22;975;48.760;9.152;2022-07-18T19:41:17;27.10;37.30
1950;DHT22;975;48.760;9.152;2022-07-18T19:58:32;26.90;37.90
1950;DHT22;975;48.760;9.152;2022-07-18T20:01:00;26.20;39.90
1950;DHT22;975;48.760;9.152;2022-07-18T20:03:29;26.10;40.60
1950;DHT22;975;48.760;9.152;2022-07-18T20:08:24;26.00;40.80
1950;DHT22;975;48.760;9.152;2022-07-18T20:10:51;25.80;41.80
1950;DHT22;975;48.760;9.152;2022-07-18T20:13:19;25.70;42.50
1950;DHT22;975;48.760;9.152;2022-07-18T20:15:46;25.60;42.30
1950;DHT22;975;48.760;9.152;2022-07-18T20:18:14;25.50;41.90
1950;DHT22;975;48.760;9.152;2022-07-18T20:20:43;25.40;42.90
1950;DHT22;975;48.760;9.152;2022-07-18T20:33:05;25.30;43.20
1950;DHT22;975;48.760;9.152;2022-07-18T20:35:32;25.00;45.00
1950;DHT22;975;48.760;9.152;2022-07-18T20:38:01;24.90;44.70
1950;DHT22;975;48.760;9.152;2022-07-18T20:40:31;24.80;45.20
1950;DHT22;975;48.760;9.152;2022-07-18T20:42:58;24.80;45.10
1950;DHT22;975;48.760;9.152;2022-07-18T20:45:26;24.70;45.50
1950;DHT22;975;48.760;9.152;2022-07-18T20:47:55;24.60;45.50
1950;DHT22;975;48.760;9.152;2022-07-18T20:50:23;24.50;45.80
1950;DHT22;975;48.760;9.152;2022-07-18T20:52:51;24.50;45.90
1950;DHT22;975;48.760;9.152;2022-07-18T20:55:24;24.40;46.20
1950;DHT22;975;48.760;9.152;2022-07-18T20:57:53;24.30;46.70
1950;DHT22;975;48.760;9.152;2022-07-18T21:00:24;24.20;47.10
1950;DHT22;975;48.760;9.152;2022-07-18T21:02:51;24.10;47.40
1950;DHT22;975;48.760;9.152;2022-07-18T21:05:21;24.10;47.50
1950;DHT22;975;48.760;9.152;2022-07-18T21:07:49;24.00;47.40
1950;DHT22;975;48.760;9.152;2022-07-18T21:10:16;24.00;47.40
1950;DHT22;975;48.760;9.152;2022-07-18T21:12:45;24.00;47.40
1950;DHT22;975;48.760;9.152;2022-07-18T21:15:13;23.90;47.50
1950;DHT22;975;48.760;9.152;2022-07-18T21:17:42;23.80;47.80
1950;DHT22;975;48.760;9.152;2022-07-18T21:20:15;23.70;48.20
1950;DHT22;975;48.760;9.152;2022-07-18T21:22:43;23.70;48.60
1950;DHT22;975;48.760;9.152;2022-07-18T21:25:12;23.70;49.50
1950;DHT22;975;48.760;9.152;2022-07-18T21:27:40;23.60;49.50
1950;DHT22;975;48.760;9.152;2022-07-18T21:30:10;23.60;50.00
1950;DHT22;975;48.760;9.152;2022-07-18T21:32:39;23.50;50.50
1950;DHT22;975;48.760;9.152;2022-07-18T21:35:08;23.50;50.70
1950;DHT22;975;48.760;9.152;2022-07-18T21:37:37;23.40;50.80
1950;DHT22;975;48.760;9.152;2022-07-18T21:40:06;23.30;50.80
1950;DHT22;975;48.760;9.152;2022-07-18T21:42:34;23.30;51.00
1950;DHT22;975;48.760;9.152;2022-07-18T21:45:03;23.20;51.10
1950;DHT22;975;48.760;9.152;2022-07-18T21:47:32;23.10;51.30
1950;DHT22;975;48.760;9.152;2022-07-18T21:49:59;23.00;51.50
1950;DHT22;975;48.760;9.152;2022-07-18T21:52:27;22.90;52.00
1950;DHT22;975;48.760;9.152;2022-07-18T21:54:54;22.90;51.90
1950;DHT22;975;48.760;9.152;2022-07-18T21:57:23;22.80;52.10
1950;DHT22;975;48.760;9.152;2022-07-18T23:23:40;22.80;51.80
1950;DHT22;975;48.760;9.152;2022-07-18T23:26:08;21.40;58.50
1950;DHT22;975;48.760;9.152;2022-07-18T23:28:35;21.30;58.80
1950;DHT22;975;48.760;9.152;2022-07-18T23:31:04;21.20;58.90
1950;DHT22;975;48.760;9.152;2022-07-18T23:33:31;21.10;58.90
1950;DHT22;975;48.760;9.152;2022-07-18T23:35:59;21.10;58.90
1950;DHT22;975;48.760;9.152;2022-07-18T23:38:26;21.00;59.10
1950;DHT22;975;48.760;9.152;2022-07-18T23:40:54;20.90;59.10
1950;DHT22;975;48.760;9.152;2022-07-18T23:43:21;20.90;59.30
1950;DHT22;975;48.760;9.152;2022-07-18T23:45:48;20.90;59.40
1950;DHT22;975;48.760;9.152;2022-07-18T23:48:17;20.90;59.50
1950;DHT22;975;48.760;9.152;2022-07-18T23:50:45;20.90;59.50
1950;DHT22;975;48.760;9.152;2022-07-18T23:53:12;20.90;59.60
1950;DHT22;975;48.760;9.152;2022-07-18T23:55:40;20.90;59.50
1950;DHT22;975;48.760;9.152;2022-07-18T23:58:07;20.90;59.90
